Time;durP1;ratioP1;P1;durP2;ratioP2;P2;SDS_P1;SDS_P2;PMS_P1;PMS_P2;Temp;Humidity;BMP_temperature;BMP_pressure;BME280_temperature;BME280_humidity;BME280_pressure;Samples;Min_cycle;Max_cycle;Signal;HPM_P1;HPM_P2
2023/05/31 00:02:24;;;;;;;7.75;5.30;;;20.80;99.90;;;;;;5089917;28;20031;-65
2023/05/31 00:04:50;;;;;;;7.95;5.28;;;20.80;99.90;;;;;;5090691;28;20085;-66
2023/05/31 00:07:16;;;;;;;7.82;4.97;;;20.80;99.90;;;;;;5091522;28;20731;-66
2023/05/31 00:09:42;;;;;;;8.00;5.10;;;20.80;99.90;;;;;;5091069;28;20402;-66
2023/05/31 00:12:08;;;;;;;7.43;5.10;;;20.80;99.90;;;;;;5091165;28;20028;-66
2023/05/31 00:14:33;;;;;;;6.50;5.28;;;20.70;99.90;;;;;;5091123;28;20032;-66
2023/05/31 00:16:59;;;;;;;9.15;5.18;;;20.70;99.90;;;;;;5090877;28;20044;-64
2023/05/31 00:19:25;;;;;;;7.47;5.25;;;20.70;99.90;;;;;;5090879;28;20028;-65
2023/05/31 00:21:50;;;;;;;10.00;5.35;;;20.70;99.90;;;;;;5091006;28;20475;-65
2023/05/31 00:24:17;;;;;;;6.70;4.72;;;20.60;99.90;;;;;;5090909;28;20483;-66
2023/05/31 00:26:42;;;;;;;6.20;4.80;;;20.60;99.90;;;;;;5091269;28;20028;-65
2023/05/31 00:29:08;;;;;;;8.80;5.25;;;20.60;99.90;;;;;;5090978;28;20031;-66
2023/05/31 00:31:34;;;;;;;7.75;5.85;;;20.60;99.90;;;;;;5090752;28;20058;-66
2023/05/31 00:33:59;;;;;;;6.60;5.25;;;20.60;99.90;;;;;;5090544;28;20509;-66
2023/05/31 00:36:25;;;;;;;8.18;5.57;;;20.60;99.90;;;;;;5090888;28;20055;-66
2023/05/31 00:38:51;;;;;;;6.15;4.70;;;20.50;99.90;;;;;;5090922;28;20059;-66
2023/05/31 00:41:20;;;;;;;5.82;5.22;;;20.50;99.90;;;;;;5090589;28;20529;-63
2023/05/31 00:43:45;;;;;;;5.25;4.75;;;20.40;99.90;;;;;;5090824;28;20028;-65
2023/05/31 00:46:27;;;;;;;8.40;5.15;;;20.40;99.90;;;;;;5090792;28;20376;-66
2023/05/31 00:48:55;;;;;;;10.20;5.28;;;20.40;99.90;;;;;;5090565;28;20107;-66
2023/05/31 00:51:21;;;;;;;8.55;5.13;;;20.30;99.90;;;;;;5090840;28;20491;-66
2023/05/31 00:53:47;;;;;;;8.95;5.38;;;20.40;99.90;;;;;;5090559;28;20044;-65
2023/05/31 00:56:13;;;;;;;9.02;4.80;;;20.30;99.90;;;;;;5090892;28;20032;-65
2023/05/31 00:58:41;;;;;;;7.78;5.00;;;20.30;99.90;;;;;;5090547;28;20097;-66
2023/05/31 01:01:08;;;;;;;5.28;4.78;;;20.30;99.90;;;;;;5090659;28;20024;-66
2023/05/31 01:03:34;;;;;;;6.95;4.88;;;20.30;99.90;;;;;;5090681;28;20394;-65
2023/05/31 01:06:00;;;;;;;7.00;4.93;;;20.20;99.90;;;;;;5093389;28;20024;-66
2023/05/31 01:08:27;;;;;;;8.70;5.20;;;20.20;99.90;;;;;;5094138;28;20552;-66
2023/05/31 01:10:57;;;;;;;9.00;5.93;;;20.10;99.90;;;;;;5094188;28;20394;-66
2023/05/31 01:13:51;;;;;;;6.93;5.40;;;20.10;99.90;;;;;;5094353;28;20023;-66
2023/05/31 01:16:36;;;;;;;5.97;5.28;;;20.00;99.90;;;;;;5094288;28;20406;-65
2023/05/31 01:19:06;;;;;;;7.50;5.30;;;20.00;99.90;;;;;;5093908;28;20052;-66
2023/05/31 01:22:14;;;;;;;8.52;5.47;;;19.90;99.90;;;;;;5093894;28;20031;-65
2023/05/31 01:24:52;;;;;;;7.18;5.65;;;19.90;99.90;;;;;;5094152;28;20031;-66
2023/05/31 01:27:20;;;;;;;6.32;5.10;;;19.80;99.90;;;;;;5093858;28;20028;-66
2023/05/31 01:29:48;;;;;;;6.00;5.05;;;19.80;99.90;;;;;;5093737;28;20073;-66
2023/05/31 01:32:16;;;;;;;6.20;5.60;;;19.70;99.90;;;;;;5093208;28;20032;-65
2023/05/31 01:34:45;;;;;;;7.75;5.35;;;19.70;99.90;;;;;;5093717;28;20389;-66
2023/05/31 01:37:11;;;;;;;6.65;5.45;;;19.60;99.90;;;;;;5093483;28;20052;-65
2023/05/31 01:39:37;;;;;;;7.32;5.78;;;19.60;99.90;;;;;;5093406;28;20165;-66
2023/05/31 01:42:04;;;;;;;7.25;5.60;;;19.50;99.90;;;;;;5093654;28;20031;-65
2023/05/31 01:44:32;;;;;;;6.65;5.50;;;19.50;99.90;;;;;;5093353;28;20032;-64
2023/05/31 01:46:58;;;;;;;8.05;6.00;;;19.40;99.90;;;;;;5092924;28;20031;-66
2023/05/31 01:49:25;;;;;;;6.88;5.95;;;19.30;99.90;;;;;;5092409;28;20028;-66
2023/05/31 01:51:51;;;;;;;7.35;5.10;;;19.30;99.90;;;;;;5093589;28;20061;-64
2023/05/31 01:54:17;;;;;;;7.18;5.78;;;19.20;99.90;;;;;;5093318;28;20052;-65
2023/05/31 01:56:45;;;;;;;6.32;5.43;;;19.30;99.90;;;;;;5093304;28;20105;-66
2023/05/31 01:59:12;;;;;;;8.80;5.75;;;19.20;99.90;;;;;;5093292;28;20127;-65
2023/05/31 02:01:39;;;;;;;7.55;5.20;;;19.20;99.90;;;;;;5093206;28;20039;-66
2023/05/31 02:04:05;;;;;;;7.72;5.43;;;19.20;99.90;;;;;;5093189;28;20024;-65
2023/05/31 02:06:34;;;;;;;6.47;5.55;;;19.10;99.90;;;;;;5093046;28;20036;-65
2023/05/31 02:09:00;;;;;;;6.13;5.32;;;18.90;99.90;;;;;;5093459;28;20017;-65
2023/05/31 02:11:26;;;;;;;8.52;5.80;;;18.90;99.90;;;;;;5093029;28;20039;-66
2023/05/31 02:13:52;;;;;;;8.68;5.80;;;19.00;99.90;;;;;;5092730;28;20043;-65
2023/05/31 02:16:19;;;;;;;7.40;5.88;;;18.90;99.90;;;;;;5092080;28;20028;-66
2023/05/31 02:18:45;;;;;;;9.07;5.57;;;18.90;99.90;;;;;;5092707;28;20040;-65
2023/05/31 02:21:10;;;;;;;6.95;6.10;;;18.90;99.90;;;;;;5092780;28;20023;-65
2023/05/31 02:23:36;;;;;;;9.30;5.07;;;18.90;99.90;;;;;;5092671;28;20101;-66
2023/05/31 02:26:01;;;;;;;6.30;5.40;;;18.90;99.90;;;;;;5092829;28;20107;-65
2023/05/31 02:28:27;;;;;;;7.72;5.32;;;18.80;99.90;;;;;;5092525;28;20035;-65
2023/05/31 02:30:58;;;;;;;7.47;5.70;;;18.80;99.90;;;;;;5092208;28;20424;-66
2023/05/31 02:33:24;;;;;;;7.07;5.60;;;18.70;99.90;;;;;;5092616;28;20406;-66
2023/05/31 02:35:50;;;;;;;7.80;5.20;;;18.70;99.90;;;;;;5091428;28;20040;-66
2023/05/31 02:38:16;;;;;;;6.40;5.32;;;18.60;99.90;;;;;;5092326;28;20458;-66
2023/05/31 02:40:41;;;;;;;6.60;5.88;;;18.60;99.90;;;;;;5092569;28;20498;-65
2023/05/31 02:43:07;;;;;;;7.95;5.60;;;18.60;99.90;;;;;;5092209;28;20066;-65
2023/05/31 02:45:33;;;;;;;6.97;5.30;;;18.50;99.90;;;;;;5092022;28;20513;-65
2023/05/31 02:48:01;;;;;;;7.65;5.75;;;18.60;99.90;;;;;;5092477;28;20452;-65
2023/05/31 02:50:27;;;;;;;8.35;5.90;;;18.50;99.90;;;;;;5092187;28;20028;-66
2023/05/31 02:52:53;;;;;;;7.75;5.90;;;18.50;99.90;;;;;;5091145;28;20039;-66
2023/05/31 02:55:19;;;;;;;8.50;5.75;;;18.40;99.90;;;;;;5092223;28;20016;-66
2023/05/31 02:57:44;;;;;;;8.15;6.28;;;18.40;99.90;;;;;;5091981;28;20514;-65
2023/05/31 03:00:11;;;;;;;9.02;5.50;;;18.30;99.90;;;;;;5091763;28;20019;-64
2023/05/31 03:02:40;;;;;;;9.68;6.03;;;18.30;99.90;;;;;;5092390;28;20036;-65
2023/05/31 03:05:08;;;;;;;6.72;5.60;;;18.20;99.90;;;;;;5091891;28;20020;-66
2023/05/31 03:07:34;;;;;;;7.53;5.72;;;18.20;99.90;;;;;;5092008;28;20031;-65
2023/05/31 03:10:00;;;;;;;8.40;5.70;;;18.20;99.90;;;;;;5091746;28;20020;-65
2023/05/31 03:12:26;;;;;;;7.47;5.65;;;18.10;99.90;;;;;;5091097;28;20028;-66
2023/05/31 03:14:52;;;;;;;7.60;5.85;;;18.10;99.90;;;;;;5089088;28;20073;-66
2023/05/31 03:17:18;;;;;;;9.55;5.82;;;18.10;99.90;;;;;;5091415;28;20594;-65
2023/05/31 03:19:43;;;;;;;8.52;5.65;;;18.00;99.90;;;;;;5091246;28;20025;-66
2023/05/31 03:22:09;;;;;;;7.47;5.82;;;18.10;99.90;;;;;;5091805;28;20024;-65
2023/05/31 03:24:35;;;;;;;9.85;5.68;;;18.10;99.90;;;;;;5091701;28;20020;-64
2023/05/31 03:27:00;;;;;;;8.05;5.60;;;18.10;99.90;;;;;;5090885;28;20016;-65
2023/05/31 03:29:27;;;;;;;7.38;5.60;;;18.20;99.90;;;;;;5091195;28;20028;-66
2023/05/31 03:31:52;;;;;;;7.50;6.00;;;18.20;99.90;;;;;;5091621;28;20057;-65
2023/05/31 03:34:18;;;;;;;8.13;5.65;;;18.10;99.90;;;;;;5091510;28;20034;-66
2023/05/31 03:36:44;;;;;;;7.50;5.93;;;18.10;99.90;;;;;;5091367;28;20044;-65
2023/05/31 03:39:10;;;;;;;9.30;6.00;;;18.10;99.90;;;;;;5091516;28;20084;-66
2023/05/31 03:41:36;;;;;;;8.20;5.55;;;18.10;99.90;;;;;;5091323;28;20375;-65
2023/05/31 03:44:01;;;;;;;7.93;5.60;;;18.10;99.90;;;;;;5091409;28;20032;-66
2023/05/31 03:46:27;;;;;;;10.70;5.80;;;18.20;99.90;;;;;;5091453;28;20583;-66
2023/05/31 03:48:53;;;;;;;7.32;5.53;;;18.20;99.90;;;;;;5091382;28;20032;-66
2023/05/31 03:51:19;;;;;;;8.38;5.80;;;18.10;99.90;;;;;;5091393;28;20398;-66
2023/05/31 03:53:44;;;;;;;13.10;6.63;;;18.10;99.90;;;;;;5091529;28;20095;-66
2023/05/31 03:56:10;;;;;;;10.98;6.28;;;18.10;99.90;;;;;;5091185;28;20028;-64
2023/05/31 03:58:36;;;;;;;7.50;5.70;;;18.10;99.90;;;;;;5090526;28;20032;-66
2023/05/31 04:01:02;;;;;;;8.73;5.78;;;18.00;99.90;;;;;;5090566;28;20024;-66
2023/05/31 04:03:28;;;;;;;11.85;5.90;;;18.00;99.90;;;;;;5090326;28;20048;-66
2023/05/31 04:05:54;;;;;;;9.55;5.30;;;17.90;99.90;;;;;;5089387;28;20063;-66
2023/05/31 04:08:19;;;;;;;8.48;5.90;;;17.90;99.90;;;;;;5091082;28;20034;-66
2023/05/31 04:10:45;;;;;;;9.77;5.85;;;17.90;99.90;;;;;;5089739;28;20119;-66
2023/05/31 04:13:11;;;;;;;7.65;5.90;;;17.80;99.90;;;;;;5090776;28;20055;-65
2023/05/31 04:15:36;;;;;;;9.20;5.65;;;17.80;99.90;;;;;;5091185;28;20021;-65
2023/05/31 04:18:03;;;;;;;8.90;5.68;;;17.80;99.90;;;;;;5091347;28;20661;-66
2023/05/31 04:20:28;;;;;;;7.57;5.50;;;17.80;99.90;;;;;;5090956;28;20020;-66
2023/05/31 04:22:54;;;;;;;7.28;5.93;;;17.80;99.90;;;;;;5090864;28;20101;-65
2023/05/31 04:25:20;;;;;;;7.60;5.70;;;17.80;99.90;;;;;;5090079;28;20020;-64
2023/05/31 04:27:47;;;;;;;7.50;5.70;;;17.70;99.90;;;;;;5090288;28;20405;-66
2023/05/31 04:30:13;;;;;;;9.88;5.90;;;17.70;99.90;;;;;;5090960;28;20020;-66
2023/05/31 04:32:40;;;;;;;9.65;5.88;;;17.70;99.90;;;;;;5090263;28;20052;-66
2023/05/31 04:35:08;;;;;;;7.05;5.93;;;17.60;99.90;;;;;;5089170;28;20047;-64
2023/05/31 04:37:34;;;;;;;9.40;5.95;;;17.50;99.90;;;;;;5090094;28;20032;-66
2023/05/31 04:40:00;;;;;;;7.00;5.47;;;17.50;99.90;;;;;;5093281;28;20031;-65
2023/05/31 04:42:26;;;;;;;8.88;6.07;;;17.50;99.90;;;;;;5093918;28;20028;-66
2023/05/31 04:44:57;;;;;;;10.27;5.80;;;17.50;99.90;;;;;;5094477;28;20393;-66
2023/05/31 04:47:24;;;;;;;8.63;5.60;;;17.50;99.90;;;;;;5094508;28;20065;-66
2023/05/31 04:49:50;;;;;;;7.22;5.70;;;17.40;99.90;;;;;;5094968;28;20032;-64
2023/05/31 04:52:17;;;;;;;8.55;5.88;;;17.50;99.90;;;;;;5094384;28;20144;-64
2023/05/31 04:54:42;;;;;;;8.43;5.65;;;17.50;99.90;;;;;;5094216;28;20032;-66
2023/05/31 04:57:08;;;;;;;7.85;5.88;;;17.50;99.90;;;;;;5094346;28;20036;-66
2023/05/31 04:59:34;;;;;;;7.07;6.00;;;17.50;99.90;;;;;;5094662;28;20024;-66
2023/05/31 05:02:00;;;;;;;7.35;5.97;;;17.50;99.90;;;;;;5094477;28;20024;-66
2023/05/31 05:04:26;;;;;;;7.80;5.68;;;17.50;99.90;;;;;;5094296;28;20047;-66
2023/05/31 05:06:51;;;;;;;9.95;6.07;;;17.40;99.90;;;;;;5094048;28;20038;-66
2023/05/31 05:09:17;;;;;;;10.25;5.85;;;17.40;99.90;;;;;;5093989;28;20060;-66
2023/05/31 05:11:43;;;;;;;7.13;5.90;;;17.50;99.90;;;;;;5094287;28;20036;-66
2023/05/31 05:14:10;;;;;;;10.82;6.00;;;17.50;99.90;;;;;;5094028;28;20024;-66
2023/05/31 05:16:36;;;;;;;10.30;8.43;;;17.50;99.90;;;;;;5094069;28;20055;-65
2023/05/31 05:19:01;;;;;;;12.50;8.40;;;17.50;99.90;;;;;;5094013;28;20071;-66
2023/05/31 05:21:28;;;;;;;10.07;7.40;;;17.60;99.90;;;;;;5093985;28;20043;-66
2023/05/31 05:23:54;;;;;;;10.93;6.90;;;17.60;99.90;;;;;;5093669;28;20111;-66
2023/05/31 05:26:20;;;;;;;11.25;6.72;;;17.60;99.90;;;;;;5093946;28;20111;-66
2023/05/31 05:28:45;;;;;;;10.93;7.03;;;17.60;99.90;;;;;;5094280;28;20031;-66
2023/05/31 05:31:11;;;;;;;9.88;6.57;;;17.60;99.90;;;;;;5093603;28;20437;-65
2023/05/31 05:33:37;;;;;;;12.65;6.57;;;17.60;99.90;;;;;;5093624;28;20435;-66
2023/05/31 05:36:03;;;;;;;13.65;6.43;;;17.70;99.90;;;;;;5093498;28;20067;-66
2023/05/31 05:38:28;;;;;;;12.55;6.10;;;17.70;99.90;;;;;;5093129;28;20028;-66
2023/05/31 05:40:54;;;;;;;9.82;6.00;;;17.70;99.90;;;;;;5093646;28;20501;-66
2023/05/31 05:43:21;;;;;;;10.50;5.57;;;17.80;99.90;;;;;;5093248;28;20027;-65
2023/05/31 05:45:46;;;;;;;12.32;6.00;;;17.80;99.90;;;;;;5093284;28;20051;-66
2023/05/31 05:48:13;;;;;;;8.93;5.32;;;17.80;99.90;;;;;;5093248;28;20063;-66
2023/05/31 05:50:39;;;;;;;10.13;6.10;;;17.80;99.90;;;;;;5092536;28;20024;-65
2023/05/31 05:53:05;;;;;;;9.73;6.00;;;17.80;99.90;;;;;;5093180;28;20108;-66
2023/05/31 05:55:31;;;;;;;9.82;6.10;;;17.80;99.90;;;;;;5093186;28;20035;-65
2023/05/31 05:57:57;;;;;;;9.88;5.70;;;17.90;99.90;;;;;;5093420;28;20115;-65
2023/05/31 06:00:24;;;;;;;9.80;5.82;;;17.90;99.90;;;;;;5093175;28;20024;-66
2023/05/31 06:02:50;;;;;;;9.43;5.93;;;17.90;99.90;;;;;;5092277;28;20031;-66
2023/05/31 06:05:16;;;;;;;13.88;10.68;;;18.00;99.90;;;;;;5092691;28;20024;-65
2023/05/31 06:07:42;;;;;;;13.20;10.20;;;18.00;99.90;;;;;;5092506;28;20047;-66
2023/05/31 06:10:08;;;;;;;10.10;6.93;;;18.10;99.90;;;;;;5092950;28;20422;-66
2023/05/31 06:12:34;;;;;;;10.90;7.40;;;18.10;99.90;;;;;;5092589;28;20070;-66
2023/05/31 06:14:59;;;;;;;9.13;6.50;;;18.10;99.90;;;;;;5092500;28;20521;-66
2023/05/31 06:17:25;;;;;;;10.10;7.22;;;18.20;99.90;;;;;;5092903;28;20085;-66
2023/05/31 06:19:51;;;;;;;10.75;7.22;;;18.20;99.90;;;;;;5093065;28;20028;-66
2023/05/31 06:22:16;;;;;;;12.45;6.93;;;18.20;99.90;;;;;;5092592;28;20032;-66
2023/05/31 06:24:43;;;;;;;9.15;5.72;;;18.20;99.90;;;;;;5092858;28;20052;-66
2023/05/31 06:27:09;;;;;;;9.68;6.35;;;18.10;99.90;;;;;;5093195;28;20498;-66
2023/05/31 06:29:34;;;;;;;11.45;6.35;;;18.20;99.90;;;;;;5092697;28;20020;-66
2023/05/31 06:32:00;;;;;;;12.02;6.07;;;18.20;99.90;;;;;;5092637;28;20074;-66
2023/05/31 06:34:25;;;;;;;9.40;5.55;;;18.30;99.90;;;;;;5092469;28;20384;-66
2023/05/31 06:36:51;;;;;;;9.63;5.82;;;18.30;99.90;;;;;;5092169;28;20936;-66
2023/05/31 06:39:17;;;;;;;11.45;5.80;;;18.40;99.90;;;;;;5092666;28;20050;-66
2023/05/31 06:41:42;;;;;;;8.85;5.47;;;18.40;99.90;;;;;;5092672;28;20451;-63
2023/05/31 06:44:08;;;;;;;8.02;5.30;;;18.40;99.90;;;;;;5092396;28;20031;-66
2023/05/31 06:46:34;;;;;;;8.52;5.45;;;18.50;99.90;;;;;;5092399;28;20082;-66
2023/05/31 06:49:01;;;;;;;12.65;5.82;;;18.50;99.90;;;;;;5092105;28;20027;-66
2023/05/31 06:51:26;;;;;;;8.60;5.40;;;18.50;99.90;;;;;;5092538;28;20027;-66
2023/05/31 06:53:52;;;;;;;8.88;5.95;;;18.50;99.90;;;;;;5092151;28;20402;-65
2023/05/31 06:56:18;;;;;;;10.57;5.68;;;18.50;99.90;;;;;;5092200;28;20107;-66
2023/05/31 06:58:44;;;;;;;10.38;5.90;;;18.50;99.90;;;;;;5092283;28;20040;-66
2023/05/31 07:01:10;;;;;;;10.32;5.93;;;18.60;99.90;;;;;;5091830;28;20057;-66
2023/05/31 07:03:35;;;;;;;10.65;5.75;;;18.60;99.90;;;;;;5092305;28;20551;-65
2023/05/31 07:06:01;;;;;;;11.63;6.05;;;18.70;99.90;;;;;;5091673;28;20036;-64
2023/05/31 07:08:26;;;;;;;14.68;6.47;;;18.70;99.90;;;;;;5091909;28;20390;-65
2023/05/31 07:10:53;;;;;;;14.18;5.90;;;18.70;99.90;;;;;;5091878;28;20123;-65
2023/05/31 07:13:19;;;;;;;12.20;6.38;;;18.80;99.90;;;;;;5091832;28;20028;-65
2023/05/31 07:15:45;;;;;;;10.63;6.18;;;18.80;99.90;;;;;;5091784;28;20039;-65
2023/05/31 07:18:10;;;;;;;10.10;6.75;;;18.80;99.90;;;;;;5091237;28;20032;-66
2023/05/31 07:20:36;;;;;;;13.40;6.50;;;18.80;99.90;;;;;;5091120;28;20027;-65
2023/05/31 07:23:02;;;;;;;13.57;6.20;;;18.80;99.90;;;;;;5091773;28;20032;-66
2023/05/31 07:25:27;;;;;;;16.33;6.50;;;18.90;99.90;;;;;;5090752;28;20034;-66
2023/05/31 07:27:53;;;;;;;12.18;6.30;;;18.90;99.90;;;;;;5091573;28;20032;-66
2023/05/31 07:30:20;;;;;;;11.52;6.43;;;18.90;99.90;;;;;;5091518;28;20020;-66
2023/05/31 07:32:46;;;;;;;16.40;6.75;;;18.90;99.90;;;;;;5091710;28;20024;-66
2023/05/31 07:35:11;;;;;;;12.45;6.30;;;19.00;99.90;;;;;;5091057;28;20020;-65
2023/05/31 07:37:37;;;;;;;13.13;6.68;;;19.00;99.90;;;;;;5091326;28;20123;-65
2023/05/31 07:40:04;;;;;;;9.50;6.25;;;19.00;99.90;;;;;;5091339;28;20035;-66
2023/05/31 07:42:32;;;;;;;14.98;6.50;;;19.10;99.90;;;;;;5091555;28;20485;-65
2023/05/31 07:44:58;;;;;;;8.48;5.90;;;19.20;99.90;;;;;;5091307;28;20028;-65
2023/05/31 07:47:24;;;;;;;12.48;6.18;;;19.20;99.90;;;;;;5091561;28;20482;-65
2023/05/31 07:49:51;;;;;;;11.00;6.88;;;19.20;99.90;;;;;;5090944;28;20550;-65
2023/05/31 07:52:21;;;;;;;10.30;7.00;;;19.30;99.90;;;;;;5091431;28;20513;-66
2023/05/31 07:54:50;;;;;;;14.50;7.55;;;19.40;99.90;;;;;;5091214;28;20020;-66
2023/05/31 07:57:16;;;;;;;10.65;6.95;;;19.50;99.90;;;;;;5091526;28;20039;-65
2023/05/31 07:59:41;;;;;;;13.13;6.78;;;19.60;99.90;;;;;;5091200;28;20028;-66
2023/05/31 08:02:07;;;;;;;11.25;6.95;;;19.60;99.90;;;;;;5091186;28;20031;-65
2023/05/31 08:04:33;;;;;;;10.40;6.95;;;19.60;99.90;;;;;;5089551;28;20077;-66
2023/05/31 08:06:58;;;;;;;11.13;7.38;;;19.70;99.90;;;;;;5091168;28;20059;-65
2023/05/31 08:09:25;;;;;;;11.23;6.80;;;19.70;99.90;;;;;;5091044;28;20031;-65
2023/05/31 08:11:52;;;;;;;10.90;7.22;;;19.80;99.90;;;;;;5091126;28;20021;-65
2023/05/31 08:14:18;;;;;;;10.70;7.22;;;19.90;99.90;;;;;;5093002;28;20067;-66
2023/05/31 08:16:44;;;;;;;11.68;7.07;;;19.90;99.90;;;;;;5095144;28;20043;-65
2023/05/31 08:19:10;;;;;;;12.02;7.43;;;19.90;99.90;;;;;;5094862;28;20035;-65
2023/05/31 08:21:37;;;;;;;12.38;7.28;;;20.20;99.90;;;;;;5095693;28;20023;-65
2023/05/31 08:24:05;;;;;;;10.65;7.50;;;20.20;99.90;;;;;;5095173;28;20128;-65
2023/05/31 08:26:32;;;;;;;11.55;7.22;;;20.20;99.90;;;;;;5095197;28;20091;-65
2023/05/31 08:28:57;;;;;;;11.90;6.97;;;20.30;99.90;;;;;;5094973;28;20032;-65
2023/05/31 08:31:23;;;;;;;10.02;6.38;;;20.40;99.90;;;;;;5095227;28;20505;-65
2023/05/31 08:33:54;;;;;;;11.15;7.10;;;20.50;99.90;;;;;;5094532;28;20092;-65
2023/05/31 08:36:20;;;;;;;9.07;6.63;;;20.40;99.90;;;;;;5094695;28;20478;-65
2023/05/31 08:38:45;;;;;;;10.98;6.53;;;20.40;99.90;;;;;;5094894;28;20123;-65
2023/05/31 08:41:11;;;;;;;8.13;6.47;;;20.50;99.90;;;;;;5095230;28;20078;-65
2023/05/31 08:43:39;;;;;;;8.32;7.15;;;20.60;99.90;;;;;;5094673;28;20104;-65
2023/05/31 08:46:06;;;;;;;11.60;7.32;;;20.70;99.90;;;;;;5094641;28;20017;-66
2023/05/31 08:49:01;;;;;;;8.68;6.88;;;20.80;99.90;;;;;;5094260;28;20024;-66
2023/05/31 08:51:28;;;;;;;11.00;7.28;;;20.90;99.90;;;;;;5094597;28;20043;-65
2023/05/31 08:53:56;;;;;;;11.80;7.85;;;20.90;99.90;;;;;;5094915;28;20044;-66
2023/05/31 08:56:23;;;;;;;11.38;7.57;;;21.10;99.90;;;;;;5094422;28;20028;-66
2023/05/31 08:58:50;;;;;;;9.35;6.93;;;21.10;99.90;;;;;;5094242;28;20093;-66
2023/05/31 09:01:18;;;;;;;10.30;7.70;;;21.20;99.90;;;;;;5094397;28;20084;-66
2023/05/31 09:03:45;;;;;;;9.10;7.28;;;21.10;99.90;;;;;;5094229;28;20103;-66
2023/05/31 09:06:11;;;;;;;14.93;8.00;;;21.20;99.90;;;;;;5094336;28;20020;-66
2023/05/31 09:08:37;;;;;;;10.32;7.88;;;21.10;99.90;;;;;;5092799;28;20408;-66
2023/05/31 09:11:03;;;;;;;11.05;8.25;;;21.00;99.90;;;;;;5094178;28;20039;-66
2023/05/31 09:13:29;;;;;;;9.52;7.85;;;21.10;99.90;;;;;;5094014;28;20041;-66
2023/05/31 09:15:55;;;;;;;11.35;8.13;;;21.30;99.90;;;;;;5093742;28;20024;-66
2023/05/31 09:18:22;;;;;;;12.45;8.20;;;21.30;99.90;;;;;;5094365;28;20036;-66
2023/05/31 09:20:48;;;;;;;10.05;8.00;;;21.20;99.90;;;;;;5094117;28;20192;-66
2023/05/31 09:23:18;;;;;;;13.40;8.77;;;21.30;99.90;;;;;;5093923;28;20103;-66
2023/05/31 09:25:45;;;;;;;11.80;8.13;;;21.30;99.90;;;;;;5092616;28;20073;-66
2023/05/31 09:28:12;;;;;;;10.40;8.10;;;21.50;99.90;;;;;;5093621;28;20040;-66
2023/05/31 09:30:38;;;;;;;10.70;8.00;;;21.40;99.90;;;;;;5093460;28;20040;-66
2023/05/31 09:33:03;;;;;;;10.85;8.15;;;21.50;99.90;;;;;;5093641;28;20032;-65
2023/05/31 09:35:29;;;;;;;13.98;8.43;;;21.50;99.90;;;;;;5093676;28;20057;-65
2023/05/31 09:37:56;;;;;;;11.32;7.80;;;21.40;99.90;;;;;;5094105;28;20487;-65
2023/05/31 09:40:23;;;;;;;14.25;8.00;;;21.60;99.90;;;;;;5093713;28;20040;-65
2023/05/31 09:42:50;;;;;;;15.75;7.93;;;21.70;99.90;;;;;;5093143;28;20062;-65
2023/05/31 09:45:17;;;;;;;11.63;8.57;;;21.70;99.90;;;;;;5092366;28;20136;-65
2023/05/31 09:47:43;;;;;;;13.05;8.00;;;21.80;99.90;;;;;;5093378;28;20032;-65
2023/05/31 09:50:09;;;;;;;10.30;7.65;;;21.80;99.90;;;;;;5093486;28;20021;-65
2023/05/31 09:52:38;;;;;;;12.73;6.90;;;21.90;99.90;;;;;;5093696;28;20031;-65
2023/05/31 09:55:06;;;;;;;8.02;6.53;;;21.90;99.90;;;;;;5093219;28;20028;-65
2023/05/31 09:57:40;;;;;;;11.32;7.05;;;22.00;99.90;;;;;;5093553;28;20024;-64
2023/05/31 10:00:16;;;;;;;9.13;6.45;;;22.20;99.90;;;;;;5093074;28;20028;-64
2023/05/31 10:02:46;;;;;;;17.10;12.90;;;22.30;99.90;;;;;;5093749;28;20059;-65
2023/05/31 10:05:13;;;;;;;17.92;12.65;;;22.20;99.90;;;;;;5093172;28;20482;-65
2023/05/31 10:07:47;;;;;;;13.65;9.13;;;22.60;99.90;;;;;;5093037;28;20030;-65
2023/05/31 10:10:14;;;;;;;18.70;11.25;;;22.60;99.90;;;;;;5093081;28;20398;-65
2023/05/31 10:12:54;;;;;;;15.75;10.10;;;22.50;99.90;;;;;;5093274;28;20028;-65
2023/05/31 10:15:22;;;;;;;12.10;8.90;;;22.40;99.90;;;;;;5093012;28;20024;-65
2023/05/31 10:17:57;;;;;;;16.95;10.07;;;22.60;99.90;;;;;;5092933;28;20027;-65
2023/05/31 10:20:29;;;;;;;13.02;7.75;;;22.60;99.90;;;;;;5092758;28;20028;-65
2023/05/31 10:23:00;;;;;;;22.50;14.10;;;22.60;99.90;;;;;;5092715;28;20509;-65
2023/05/31 10:25:33;;;;;;;15.85;9.82;;;22.70;99.90;;;;;;5093113;28;20406;-65
2023/05/31 10:28:06;;;;;;;12.90;7.60;;;22.70;99.90;;;;;;5092909;28;20501;-65
2023/05/31 10:30:36;;;;;;;11.00;6.85;;;22.70;99.90;;;;;;5092518;28;20052;-65
2023/05/31 10:33:07;;;;;;;21.73;11.68;;;22.80;99.90;;;;;;5092163;28;20048;-64
2023/05/31 10:35:33;;;;;;;17.98;9.77;;;23.00;99.90;;;;;;5092269;28;20036;-65
2023/05/31 10:38:00;;;;;;;14.70;9.40;;;23.00;99.90;;;;;;5092065;28;20032;-63
2023/05/31 10:40:52;;;;;;;19.45;11.20;;;23.00;99.90;;;;;;5091641;28;20028;-65
2023/05/31 10:43:26;;;;;;;10.85;7.72;;;23.10;99.90;;;;;;5091577;28;20066;-65
2023/05/31 10:46:01;;;;;;;25.60;13.90;;;23.10;99.90;;;;;;5091956;28;20043;-65
2023/05/31 10:48:39;;;;;;;14.68;8.68;;;23.20;99.90;;;;;;5092332;28;20402;-64
2023/05/31 10:51:06;;;;;;;11.98;7.53;;;23.30;99.90;;;;;;5092225;28;20028;-64
2023/05/31 10:53:37;;;;;;;23.23;15.85;;;23.20;99.90;;;;;;5092087;28;20032;-64
2023/05/31 10:56:06;;;;;;;11.10;8.20;;;23.20;99.90;;;;;;5092107;28;20020;-65
2023/05/31 10:58:37;;;;;;;15.15;8.45;;;23.10;99.90;;;;;;5091769;28;20100;-65
2023/05/31 11:01:05;;;;;;;11.50;8.35;;;23.20;99.90;;;;;;5092340;28;20383;-66
2023/05/31 11:03:34;;;;;;;11.20;8.35;;;23.20;99.90;;;;;;5092034;28;20032;-65
2023/05/31 11:06:05;;;;;;;13.48;7.90;;;23.30;99.90;;;;;;5092059;28;20103;-65
2023/05/31 11:08:31;;;;;;;14.38;7.53;;;23.30;99.90;;;;;;5092322;28;20032;-64
2023/05/31 11:11:46;;;;;;;10.77;7.43;;;23.30;99.90;;;;;;5091747;28;20030;-65
2023/05/31 11:14:25;;;;;;;;;;;23.30;99.90;;;;;;5087774;28;20058;-65
2023/05/31 11:16:55;;;;;;;14.77;7.13;;;23.40;99.90;;;;;;5091789;28;19953;-65
2023/05/31 11:19:29;;;;;;;9.52;7.03;;;23.40;99.90;;;;;;5091610;28;20034;-65
2023/05/31 11:21:57;;;;;;;14.25;7.47;;;23.50;99.90;;;;;;5091734;28;20031;-65
2023/05/31 11:24:34;;;;;;;13.07;6.82;;;23.50;99.90;;;;;;5091582;28;20551;-65
2023/05/31 11:27:05;;;;;;;9.65;6.85;;;23.50;99.90;;;;;;5091465;28;20030;-66
2023/05/31 11:29:48;;;;;;;9.90;6.45;;;23.50;99.90;;;;;;5091564;28;20028;-65
2023/05/31 11:32:15;;;;;;;13.75;6.38;;;23.60;99.90;;;;;;5091549;28;20421;-65
2023/05/31 11:34:56;;;;;;;10.50;6.95;;;23.60;99.90;;;;;;5091536;28;20028;-65
2023/05/31 11:37:26;;;;;;;9.25;6.18;;;23.70;99.90;;;;;;5091703;28;20040;-65
2023/05/31 11:39:54;;;;;;;9.05;6.40;;;23.70;99.90;;;;;;5091368;28;20028;-65
2023/05/31 11:42:20;;;;;;;9.68;6.10;;;23.70;99.90;;;;;;5091086;28;20293;-65
2023/05/31 11:44:46;;;;;;;9.32;6.47;;;23.80;99.90;;;;;;5091528;28;20103;-66
2023/05/31 11:47:19;;;;;;;6.70;6.00;;;23.90;99.90;;;;;;5091760;28;20462;-65
2023/05/31 11:49:45;;;;;;;8.80;6.30;;;23.90;99.90;;;;;;5090859;28;20051;-65
2023/05/31 11:52:15;;;;;;;9.52;5.95;;;23.80;99.90;;;;;;5091133;28;20141;-65
2023/05/31 11:54:44;;;;;;;7.82;5.95;;;23.90;99.90;;;;;;5091260;28;20407;-65
2023/05/31 11:57:10;;;;;;;10.85;6.45;;;23.90;99.90;;;;;;5090730;28;20402;-65
2023/05/31 11:59:38;;;;;;;8.80;6.18;;;23.90;99.90;;;;;;5091195;28;20024;-65
2023/05/31 12:02:05;;;;;;;8.63;5.53;;;24.00;99.90;;;;;;5091267;28;20398;-66
2023/05/31 12:04:36;;;;;;;11.25;5.72;;;24.00;99.90;;;;;;5091100;28;20555;-66
2023/05/31 12:07:04;;;;;;;9.20;5.80;;;24.00;99.90;;;;;;5091342;28;20024;-66
2023/05/31 12:09:30;;;;;;;12.00;6.20;;;24.00;99.90;;;;;;5091356;28;20035;-65
2023/05/31 12:11:56;;;;;;;13.77;5.78;;;24.00;99.90;;;;;;5090858;28;20410;-65
2023/05/31 12:14:26;;;;;;;8.88;5.55;;;24.10;99.90;;;;;;5091028;28;20114;-66
2023/05/31 12:16:52;;;;;;;9.68;6.32;;;24.00;99.90;;;;;;5090999;28;20026;-64
2023/05/31 12:19:18;;;;;;;10.20;5.55;;;24.00;99.90;;;;;;5091625;28;20036;-65
2023/05/31 12:21:44;;;;;;;7.80;5.50;;;24.00;99.90;;;;;;5090945;28;20482;-65
2023/05/31 12:24:15;;;;;;;6.97;5.32;;;24.10;99.90;;;;;;5090616;28;20055;-65
2023/05/31 12:26:43;;;;;;;8.77;5.38;;;24.20;99.90;;;;;;5090984;28;20103;-65
2023/05/31 12:29:13;;;;;;;8.32;5.20;;;24.20;99.90;;;;;;5090928;28;20039;-64
2023/05/31 12:31:39;;;;;;;8.50;5.05;;;24.30;99.90;;;;;;5090879;28;20032;-63
2023/05/31 12:34:04;;;;;;;13.95;5.82;;;24.30;99.90;;;;;;5090853;28;20103;-65
2023/05/31 12:36:38;;;;;;;8.98;5.53;;;24.40;99.90;;;;;;5090954;28;20142;-65
2023/05/31 12:39:07;;;;;;;;;;;24.30;99.90;;;;;;5090894;28;20036;-65
2023/05/31 12:41:33;;;;;;;11.73;5.68;;;24.30;99.90;;;;;;5090847;28;19908;-65
2023/05/31 12:43:59;;;;;;;6.70;5.30;;;24.50;99.90;;;;;;5090711;28;20024;-65
2023/05/31 12:46:24;;;;;;;10.10;5.32;;;24.50;99.90;;;;;;5090828;28;20032;-65